createdAt,value
2018-07-25T00:02:01.259Z,5
2018-07-25T00:05:01.226Z,5
2018-07-25T00:08:01.080Z,5
2018-07-25T00:11:01.404Z,5
2018-07-25T00:14:01.282Z,5
2018-07-25T00:17:01.272Z,5
2018-07-25T00:20:01.183Z,5
2018-07-25T00:23:01.315Z,5
2018-07-25T00:26:01.349Z,5
2018-07-25T00:29:01.397Z,5
2018-07-25T00:32:01.439Z,5
2018-07-25T00:35:01.334Z,5
2018-07-25T00:38:01.285Z,5
2018-07-25T00:41:01.334Z,5
2018-07-25T00:44:01.239Z,5
2018-07-25T00:47:01.221Z,5
2018-07-25T00:50:01.050Z,5
2018-07-25T00:53:01.473Z,5
2018-07-25T00:56:01.388Z,5
2018-07-25T00:59:01.308Z,5
2018-07-25T01:02:01.115Z,4.8
2018-07-25T01:05:01.275Z,4.8
2018-07-25T01:08:01.154Z,4.8
2018-07-25T01:11:01.233Z,4.8
2018-07-25T01:14:01.228Z,4.8
2018-07-25T01:17:01.152Z,4.8
2018-07-25T01:20:01.193Z,4.8
2018-07-25T01:23:01.431Z,4.8
2018-07-25T01:26:01.193Z,4.8
2018-07-25T01:29:01.292Z,4.8
2018-07-25T01:32:01.414Z,4.8
2018-07-25T01:35:01.273Z,4.8
2018-07-25T01:38:01.362Z,4.8
2018-07-25T01:41:01.465Z,4.8
2018-07-25T01:44:01.278Z,4.8
2018-07-25T01:47:01.592Z,4.8
2018-07-25T01:50:01.534Z,4.8
2018-07-25T01:53:01.225Z,4.8
2018-07-25T01:56:01.287Z,4.8
2018-07-25T01:59:01.289Z,4.8
2018-07-25T02:02:01.396Z,4.7
2018-07-25T02:05:01.438Z,4.7
2018-07-25T02:08:01.561Z,4.7
2018-07-25T02:11:01.299Z,4.7
2018-07-25T02:14:01.391Z,4.7
2018-07-25T02:17:01.333Z,4.7
2018-07-25T02:20:01.447Z,4.7
2018-07-25T02:23:01.369Z,4.7
2018-07-25T02:26:01.096Z,4.7
2018-07-25T02:29:01.269Z,4.7
2018-07-25T02:32:01.190Z,4.7
2018-07-25T02:35:01.373Z,4.7
2018-07-25T02:38:01.440Z,4.7
2018-07-25T02:41:01.252Z,4.7
2018-07-25T02:44:01.272Z,4.7
2018-07-25T02:47:01.627Z,4.7
2018-07-25T02:50:01.286Z,4.7
2018-07-25T02:53:01.069Z,4.7
2018-07-25T02:56:01.154Z,4.7
2018-07-25T02:59:01.404Z,4.7
2018-07-25T03:02:02.027Z,4.5
2018-07-25T03:05:01.280Z,4.5
2018-07-25T03:08:01.567Z,4.5
2018-07-25T03:11:01.353Z,4.5
2018-07-25T03:14:01.334Z,4.5
2018-07-25T03:17:01.352Z,4.5
2018-07-25T03:20:01.670Z,4.5
2018-07-25T03:23:01.206Z,4.5
2018-07-25T03:26:01.141Z,4.5
2018-07-25T03:29:01.660Z,4.5
2018-07-25T03:32:01.406Z,4.5
2018-07-25T03:35:01.225Z,4.5
2018-07-25T03:38:01.750Z,4.5
2018-07-25T03:41:01.086Z,4.5
2018-07-25T03:44:01.175Z,4.5
2018-07-25T03:47:01.050Z,4.5
2018-07-25T03:50:01.205Z,4.5
2018-07-25T03:53:01.212Z,4.5
2018-07-25T03:56:01.089Z,4.5
2018-07-25T03:59:01.289Z,4.5
2018-07-25T04:02:02.560Z,4.4
2018-07-25T04:05:01.037Z,4.4
2018-07-25T04:08:01.267Z,4.4
2018-07-25T04:11:01.148Z,4.4
2018-07-25T04:14:01.140Z,4.4
2018-07-25T04:17:01.301Z,4.4
2018-07-25T04:20:01.254Z,4.4
2018-07-25T04:23:01.138Z,4.4
2018-07-25T04:26:01.114Z,4.4
2018-07-25T04:29:01.193Z,4.4
2018-07-25T04:32:01.073Z,4.4
2018-07-25T04:35:01.136Z,4.4
2018-07-25T04:38:01.331Z,4.4
2018-07-25T04:41:01.055Z,4.4
2018-07-25T04:44:01.083Z,4.4
2018-07-25T04:47:01.339Z,4.4
2018-07-25T04:50:01.093Z,4.4
2018-07-25T04:53:01.323Z,4.4
2018-07-25T04:56:01.977Z,4.4
2018-07-25T04:59:01.026Z,4.4
2018-07-25T05:02:01.232Z,4.4
2018-07-25T05:05:01.041Z,4.4
2018-07-25T05:08:01.059Z,4.4
2018-07-25T05:11:01.199Z,4.4
2018-07-25T05:14:01.225Z,4.4
2018-07-25T05:17:01.204Z,4.4
2018-07-25T05:20:01.244Z,4.4
2018-07-25T05:23:01.119Z,4.4
2018-07-25T05:26:01.003Z,4.4
2018-07-25T05:29:01.320Z,4.4
2018-07-25T05:32:01.030Z,4.4
2018-07-25T05:35:01.038Z,4.4
2018-07-25T05:38:02.055Z,4.4
2018-07-25T05:41:01.214Z,4.4
2018-07-25T05:44:01.057Z,4.4
2018-07-25T05:47:01.152Z,4.4
2018-07-25T05:50:01.209Z,4.4
2018-07-25T05:53:01.095Z,4.4
2018-07-25T05:56:01.187Z,4.4
2018-07-25T05:59:01.062Z,4.4
2018-07-25T06:02:01.084Z,4.3
2018-07-25T06:05:01.197Z,4.3
2018-07-25T06:08:01.067Z,4.3
2018-07-25T06:11:01.231Z,4.3
2018-07-25T06:14:01.097Z,4.3
2018-07-25T06:17:01.090Z,4.3
2018-07-25T06:20:01.001Z,4.3
2018-07-25T06:23:01.023Z,4.3
2018-07-25T06:26:02.319Z,4.3
2018-07-25T06:29:00.994Z,4.3
2018-07-25T06:32:01.034Z,4.3
2018-07-25T06:35:01.190Z,4.3
2018-07-25T06:38:02.703Z,4.3
2018-07-25T06:41:01.010Z,4.3
2018-07-25T06:44:01.106Z,4.3
2018-07-25T06:47:01.488Z,4.3
2018-07-25T06:50:01.047Z,4.3
2018-07-25T06:53:01.132Z,4.3
2018-07-25T06:56:01.222Z,4.3
2018-07-25T06:59:01.141Z,4.3
2018-07-25T07:02:01.031Z,4.3
2018-07-25T07:05:01.228Z,4.3
2018-07-25T07:08:01.140Z,4.3
2018-07-25T07:11:01.316Z,4.3
2018-07-25T07:14:01.373Z,4.3
2018-07-25T07:17:00.949Z,4.3
2018-07-25T07:20:01.092Z,4.3
2018-07-25T07:23:01.282Z,4.3
2018-07-25T07:26:01.188Z,4.3
2018-07-25T07:29:01.086Z,4.3
2018-07-25T07:32:01.105Z,4.3
2018-07-25T07:35:01.761Z,4.3
2018-07-25T07:38:01.059Z,4.3
2018-07-25T07:41:01.114Z,4.3
2018-07-25T07:44:12.636Z,4.3
2018-07-25T07:47:01.224Z,4.3
2018-07-25T07:50:01.284Z,4.3
2018-07-25T07:53:01.123Z,4.3
2018-07-25T07:56:01.106Z,4.3
2018-07-25T07:59:01.234Z,4.3
2018-07-25T08:02:01.103Z,4.3
2018-07-25T08:05:02.786Z,4.3
2018-07-25T08:08:01.161Z,4.3
2018-07-25T08:11:01.262Z,4.3
2018-07-25T08:14:01.125Z,4.3
2018-07-25T08:17:01.084Z,4.3
2018-07-25T08:20:02.349Z,4.3
2018-07-25T08:23:01.041Z,4.3
2018-07-25T08:26:01.170Z,4.3
2018-07-25T08:29:01.206Z,4.3
2018-07-25T08:32:01.296Z,4.3
2018-07-25T08:35:01.163Z,4.3
2018-07-25T08:38:01.118Z,4.3
2018-07-25T08:41:01.226Z,4.3
2018-07-25T09:43:28.127Z,7.1
2018-07-25T09:46:29.305Z,7.1
2018-07-25T09:49:27.779Z,7.1
2018-07-25T09:55:27.655Z,7.1
2018-07-25T10:01:27.443Z,6.1
2018-07-25T10:04:27.472Z,6.1
2018-07-25T10:07:28.943Z,6.1
2018-07-25T10:13:27.689Z,6.1
2018-07-25T10:16:27.641Z,6.1
2018-07-25T10:19:27.556Z,6.1
2018-07-25T10:22:27.874Z,6.1
2018-07-25T10:25:27.614Z,6.1
2018-07-25T10:31:27.586Z,6.1
2018-07-25T10:34:27.640Z,6.1
2018-07-25T10:37:27.707Z,6.1
2018-07-25T10:43:27.777Z,6.1
2018-07-25T10:46:27.491Z,6.1
2018-07-25T10:49:27.583Z,6.1
2018-07-25T10:55:27.619Z,6.1
2018-07-25T10:58:27.719Z,6.1
2018-07-25T11:01:27.911Z,5.7
2018-07-25T11:04:27.918Z,5.7
2018-07-25T11:10:27.588Z,5.7
2018-07-25T11:16:30.396Z,5.7
2018-07-25T11:19:27.949Z,5.7
2018-07-25T11:22:28.627Z,5.7
2018-07-25T11:28:27.426Z,5.7
2018-07-25T11:31:27.402Z,5.7
2018-07-25T11:34:27.506Z,5.7
2018-07-25T11:37:27.351Z,5.7
2018-07-25T11:43:27.390Z,5.7
2018-07-25T11:46:27.384Z,5.7
2018-07-25T11:49:27.356Z,5.7
2018-07-25T11:52:27.379Z,5.7
2018-07-25T11:55:29.250Z,5.7
2018-07-25T11:58:27.428Z,5.7
2018-07-25T12:04:27.390Z,5.6
2018-07-25T12:10:27.581Z,5.6
2018-07-25T12:13:27.729Z,5.6
2018-07-25T12:16:27.495Z,5.6
2018-07-25T12:19:27.506Z,5.6
2018-07-25T12:25:27.543Z,5.6
2018-07-25T12:31:30.857Z,5.6
2018-07-25T12:37:27.613Z,5.6
2018-07-25T12:40:27.492Z,5.6
2018-07-25T12:43:27.532Z,5.6
2018-07-25T12:46:32.946Z,5.6
2018-07-25T12:52:27.564Z,5.6
2018-07-25T12:55:27.430Z,5.6
2018-07-25T12:58:27.535Z,5.6
2018-07-25T13:01:27.579Z,5.6
2018-07-25T13:07:27.584Z,5.6
2018-07-25T13:10:28.862Z,5.6
2018-07-25T13:13:27.829Z,5.6
2018-07-25T13:19:27.591Z,5.6
2018-07-25T13:22:27.721Z,5.6
2018-07-25T13:25:27.692Z,5.6
2018-07-25T13:28:29.725Z,5.6
2018-07-25T13:34:27.798Z,5.6
2018-07-25T13:40:27.571Z,5.6
2018-07-25T13:43:27.540Z,5.6
2018-07-25T13:49:27.527Z,5.6
2018-07-25T13:55:27.546Z,5.6
2018-07-25T13:58:27.649Z,5.6
2018-07-25T14:01:27.377Z,6
2018-07-25T14:04:27.628Z,6
2018-07-25T14:10:27.504Z,6
2018-07-25T14:13:27.543Z,6
2018-07-25T14:16:27.550Z,6
2018-07-25T14:19:27.511Z,6
2018-07-25T14:22:31.770Z,6
2018-07-25T14:25:27.561Z,6
2018-07-25T14:28:27.649Z,6
2018-07-25T14:31:27.584Z,6
2018-07-25T14:34:27.701Z,6
2018-07-25T14:37:32.779Z,6
2018-07-25T14:43:27.765Z,6
2018-07-25T14:46:27.505Z,6
2018-07-25T14:49:27.561Z,6
2018-07-25T14:55:27.560Z,6
2018-07-25T14:58:27.423Z,6
2018-07-25T15:04:27.672Z,5.9
2018-07-25T15:07:27.524Z,5.9
2018-07-25T15:10:27.506Z,5.9
2018-07-25T15:16:27.643Z,5.9
2018-07-25T15:22:27.627Z,5.9
2018-07-25T15:25:27.508Z,5.9
2018-07-25T15:28:33.250Z,5.9
2018-07-25T15:34:27.801Z,5.9
2018-07-25T15:37:27.811Z,5.9
2018-07-25T15:40:27.749Z,5.9
2018-07-25T15:43:27.657Z,5.9
2018-07-25T15:46:27.543Z,5.9
2018-07-25T15:49:33.071Z,5.9
2018-07-25T15:55:27.628Z,5.9
2018-07-25T16:01:27.603Z,5.8
2018-07-25T16:04:32.692Z,5.8
2018-07-25T16:10:27.462Z,5.8
2018-07-25T16:13:27.569Z,5.8
2018-07-25T16:16:27.431Z,5.8
2018-07-25T16:22:27.490Z,5.8
2018-07-25T16:25:27.561Z,5.8
2018-07-25T16:28:27.505Z,5.8
2018-07-25T16:31:27.676Z,5.8
2018-07-25T16:37:27.495Z,5.8
2018-07-25T16:43:27.494Z,5.8
2018-07-25T16:46:27.396Z,5.8
2018-07-25T16:49:32.589Z,5.8
2018-07-25T16:52:27.527Z,5.8
2018-07-25T17:01:27.481Z,5.8
2018-07-25T17:07:27.437Z,5.8
2018-07-25T17:10:27.618Z,5.8
2018-07-25T17:13:27.581Z,5.8
2018-07-25T17:16:27.669Z,5.8
2018-07-25T17:22:28.886Z,5.8
2018-07-25T17:25:27.960Z,5.8
2018-07-25T17:28:27.965Z,5.8
2018-07-25T17:31:27.548Z,5.8
2018-07-25T17:37:27.304Z,5.8
2018-07-25T17:40:32.759Z,5.8
2018-07-25T17:46:27.445Z,5.8
2018-07-25T17:52:27.603Z,5.8
2018-07-25T17:55:32.710Z,5.8
2018-07-25T17:58:27.486Z,5.8
2018-07-25T18:01:27.440Z,6.2
2018-07-25T18:07:27.431Z,6.2
2018-07-25T18:10:27.335Z,6.2
2018-07-25T18:13:27.291Z,6.2
2018-07-25T18:16:27.410Z,6.2
2018-07-25T18:22:27.591Z,6.2
2018-07-25T18:25:27.912Z,6.2
2018-07-25T18:28:27.609Z,6.2
2018-07-25T18:31:27.541Z,6.2
2018-07-25T18:37:28.182Z,6.2
2018-07-25T18:40:27.559Z,6.2
2018-07-25T18:43:27.376Z,6.2
2018-07-25T18:49:27.546Z,6.2
2018-07-25T18:55:27.303Z,6.2
2018-07-25T19:01:27.244Z,6.2
2018-07-25T19:04:27.201Z,6.2
2018-07-25T19:07:28.911Z,6.2
2018-07-25T19:10:27.178Z,6.2
2018-07-25T19:16:27.210Z,6.2
2018-07-25T19:19:27.538Z,6.2
2018-07-25T19:22:27.286Z,6.2
2018-07-25T19:25:27.414Z,6.2
2018-07-25T19:28:27.502Z,6.2
2018-07-25T19:34:27.384Z,6.2
2018-07-25T19:37:27.496Z,6.2
2018-07-25T19:40:27.286Z,6.2
2018-07-25T19:43:28.914Z,6.2
2018-07-25T19:49:28.269Z,6.2
2018-07-25T19:52:27.489Z,6.2
2018-07-25T19:55:27.554Z,6.2
2018-07-25T19:58:27.490Z,6.2
2018-07-25T20:04:27.471Z,6.3
2018-07-25T20:10:27.704Z,6.3
2018-07-25T20:13:27.440Z,6.3
2018-07-25T20:19:27.393Z,6.3
2018-07-25T20:22:28.615Z,6.3
2018-07-25T20:25:27.527Z,6.3
2018-07-25T20:31:28.604Z,6.3
2018-07-25T20:34:27.437Z,6.3
2018-07-25T20:40:27.280Z,6.3
2018-07-25T20:43:27.313Z,6.3
2018-07-25T20:46:27.248Z,6.3
2018-07-25T20:49:27.310Z,6.3
2018-07-25T20:55:27.111Z,6.3
2018-07-25T20:58:27.279Z,6.3
2018-07-25T21:01:27.312Z,6.2
2018-07-25T21:04:27.374Z,6.2
2018-07-25T21:10:28.303Z,6.2
2018-07-25T21:13:27.560Z,6.2
2018-07-25T21:16:27.422Z,6.2
2018-07-25T21:22:27.428Z,6.2
2018-07-25T21:25:27.371Z,6.2
2018-07-25T21:28:27.353Z,6.2
2018-07-25T21:31:27.256Z,6.2
2018-07-25T21:37:27.352Z,6.2
2018-07-25T21:40:27.581Z,6.2
2018-07-25T21:43:27.455Z,6.2
2018-07-25T21:46:27.594Z,6.2
2018-07-25T21:49:27.237Z,6.2
2018-07-25T21:52:27.475Z,6.2
2018-07-25T21:58:27.414Z,6.2
2018-07-25T22:01:27.361Z,6
2018-07-25T22:04:27.448Z,6
2018-07-25T22:07:27.324Z,6
2018-07-25T22:13:27.457Z,6
2018-07-25T22:16:27.386Z,6
2018-07-25T22:19:27.342Z,6
2018-07-25T22:22:27.481Z,6
2018-07-25T22:28:27.277Z,6
2018-07-25T22:34:27.389Z,6
2018-07-25T22:37:27.239Z,6
2018-07-25T22:40:27.338Z,6
2018-07-25T22:46:27.460Z,6
2018-07-25T22:52:27.275Z,6
2018-07-25T22:55:28.482Z,6
2018-07-25T23:01:27.346Z,5.9
2018-07-25T23:07:27.183Z,5.9
2018-07-25T23:10:27.389Z,5.9
2018-07-25T23:13:27.217Z,5.9
2018-07-25T23:16:27.239Z,5.9
2018-07-25T23:22:27.406Z,5.9
2018-07-25T23:25:27.271Z,5.9
2018-07-25T23:31:27.261Z,5.9
2018-07-25T23:34:27.292Z,5.9
2018-07-25T23:37:27.187Z,5.9
2018-07-25T23:43:27.192Z,5.9
2018-07-25T23:46:27.307Z,5.9
2018-07-25T23:49:27.538Z,5.9
2018-07-25T23:52:27.403Z,5.9
2018-07-25T23:55:27.166Z,5.9
2018-07-25T23:58:27.323Z,5.9
